sensor_id;sensor_type;location;lat;lon;timestamp;P1;durP1;ratioP1;P2;durP2;ratioP2
57335;SDS011;43171;50.994;18.204;2022-10-26T00:01:41;5.30;;;4.50;;
57335;SDS011;43171;50.994;18.204;2022-10-26T00:11:23;21.20;;;8.10;;
57335;SDS011;43171;50.994;18.204;2022-10-26T00:21:08;19.10;;;11.80;;
57335;SDS011;43171;50.994;18.204;2022-10-26T00:30:50;10.10;;;7.90;;
57335;SDS011;43171;50.994;18.204;2022-10-26T00:40:32;18.60;;;13.90;;
57335;SDS011;43171;50.994;18.204;2022-10-26T00:50:42;15.30;;;10.50;;
57335;SDS011;43171;50.994;18.204;2022-10-26T01:00:34;18.00;;;10.00;;
57335;SDS011;43171;50.994;18.204;2022-10-26T01:10:17;19.20;;;11.70;;
57335;SDS011;43171;50.994;18.204;2022-10-26T01:30:41;13.20;;;9.00;;
57335;SDS011;43171;50.994;18.204;2022-10-26T01:40:40;21.50;;;9.90;;
57335;SDS011;43171;50.994;18.204;2022-10-26T01:50:27;13.30;;;9.40;;
57335;SDS011;43171;50.994;18.204;2022-10-26T02:00:23;9.50;;;6.60;;
57335;SDS011;43171;50.994;18.204;2022-10-26T02:21:07;14.80;;;10.20;;
57335;SDS011;43171;50.994;18.204;2022-10-26T02:30:55;7.90;;;7.10;;
57335;SDS011;43171;50.994;18.204;2022-10-26T02:40:40;7.10;;;5.00;;
57335;SDS011;43171;50.994;18.204;2022-10-26T02:50:32;19.30;;;11.40;;
57335;SDS011;43171;50.994;18.204;2022-10-26T03:07:54;12.50;;;7.90;;
57335;SDS011;43171;50.994;18.204;2022-10-26T03:17:36;7.20;;;6.30;;
57335;SDS011;43171;50.994;18.204;2022-10-26T03:27:17;8.20;;;5.80;;
57335;SDS011;43171;50.994;18.204;2022-10-26T03:36:59;13.10;;;8.80;;
57335;SDS011;43171;50.994;18.204;2022-10-26T03:46:40;10.80;;;7.50;;
57335;SDS011;43171;50.994;18.204;2022-10-26T03:56:22;15.10;;;7.20;;
57335;SDS011;43171;50.994;18.204;2022-10-26T04:06:04;17.60;;;7.00;;
57335;SDS011;43171;50.994;18.204;2022-10-26T04:15:46;20.20;;;9.60;;
57335;SDS011;43171;50.994;18.204;2022-10-26T04:25:29;8.20;;;5.90;;
57335;SDS011;43171;50.994;18.204;2022-10-26T04:35:12;10.90;;;6.60;;
57335;SDS011;43171;50.994;18.204;2022-10-26T04:44:58;12.30;;;6.90;;
57335;SDS011;43171;50.994;18.204;2022-10-26T04:54:41;27.90;;;14.90;;
57335;SDS011;43171;50.994;18.204;2022-10-26T05:04:22;22.90;;;14.70;;
57335;SDS011;43171;50.994;18.204;2022-10-26T05:14:04;16.70;;;11.10;;
57335;SDS011;43171;50.994;18.204;2022-10-26T05:23:49;13.90;;;7.70;;
57335;SDS011;43171;50.994;18.204;2022-10-26T05:33:34;11.20;;;9.00;;
57335;SDS011;43171;50.994;18.204;2022-10-26T05:43:17;17.80;;;8.40;;
57335;SDS011;43171;50.994;18.204;2022-10-26T05:53:00;14.10;;;9.30;;
57335;SDS011;43171;50.994;18.204;2022-10-26T06:17:40;24.20;;;12.00;;
57335;SDS011;43171;50.994;18.204;2022-10-26T06:37:55;21.80;;;10.70;;
57335;SDS011;43171;50.994;18.204;2022-10-26T06:48:01;10.30;;;7.70;;
57335;SDS011;43171;50.994;18.204;2022-10-26T07:05:28;19.70;;;8.60;;
57335;SDS011;43171;50.994;18.204;2022-10-26T07:15:10;26.20;;;9.90;;
57335;SDS011;43171;50.994;18.204;2022-10-26T07:32:16;7.50;;;6.70;;
57335;SDS011;43171;50.994;18.204;2022-10-26T07:41:58;11.10;;;9.60;;
57335;SDS011;43171;50.994;18.204;2022-10-26T07:51:40;12.90;;;8.80;;
57335;SDS011;43171;50.994;18.204;2022-10-26T08:01:22;6.60;;;5.90;;
57335;SDS011;43171;50.994;18.204;2022-10-26T08:11:08;10.60;;;6.60;;
57335;SDS011;43171;50.994;18.204;2022-10-26T08:18:25;11.20;;;9.90;;
57335;SDS011;43171;50.994;18.204;2022-10-26T08:28:07;9.60;;;7.90;;
57335;SDS011;43171;50.994;18.204;2022-10-26T08:30:33;19.70;;;16.80;;
57335;SDS011;43171;50.994;18.204;2022-10-26T08:40:20;16.10;;;12.20;;
57335;SDS011;43171;50.994;18.204;2022-10-26T08:50:23;14.40;;;10.70;;
57335;SDS011;43171;50.994;18.204;2022-10-26T09:00:22;14.00;;;11.80;;
57335;SDS011;43171;50.994;18.204;2022-10-26T09:20:31;10.40;;;7.30;;
57335;SDS011;43171;50.994;18.204;2022-10-26T09:37:55;8.80;;;6.10;;
57335;SDS011;43171;50.994;18.204;2022-10-26T09:58:24;3.60;;;3.30;;
57335;SDS011;43171;50.994;18.204;2022-10-26T10:08:22;6.80;;;2.30;;
57335;SDS011;43171;50.994;18.204;2022-10-26T10:18:19;5.80;;;3.50;;
57335;SDS011;43171;50.994;18.204;2022-10-26T10:28:25;4.90;;;2.30;;
57335;SDS011;43171;50.994;18.204;2022-10-26T10:38:15;12.60;;;2.10;;
57335;SDS011;43171;50.994;18.204;2022-10-26T10:48:12;2.00;;;1.60;;
57335;SDS011;43171;50.994;18.204;2022-10-26T11:18:54;3.50;;;2.30;;
57335;SDS011;43171;50.994;18.204;2022-10-26T11:38:45;7.70;;;2.30;;
57335;SDS011;43171;50.994;18.204;2022-10-26T11:59:19;2.10;;;1.90;;
57335;SDS011;43171;50.994;18.204;2022-10-26T12:09:21;3.30;;;2.10;;
57335;SDS011;43171;50.994;18.204;2022-10-26T13:15:26;2.60;;;2.00;;
57335;SDS011;43171;50.994;18.204;2022-10-26T13:32:57;5.80;;;1.10;;
57335;SDS011;43171;50.994;18.204;2022-10-26T13:50:24;2.60;;;1.40;;
57335;SDS011;43171;50.994;18.204;2022-10-26T14:00:33;2.60;;;1.90;;
57335;SDS011;43171;50.994;18.204;2022-10-26T14:20:26;4.50;;;2.90;;
57335;SDS011;43171;50.994;18.204;2022-10-26T14:30:26;3.80;;;2.60;;
57335;SDS011;43171;50.994;18.204;2022-10-26T14:40:27;4.30;;;1.80;;
57335;SDS011;43171;50.994;18.204;2022-10-26T14:50:18;2.20;;;1.80;;
57335;SDS011;43171;50.994;18.204;2022-10-26T15:28:09;11.60;;;5.70;;
57335;SDS011;43171;50.994;18.204;2022-10-26T15:38:09;12.20;;;3.70;;
57335;SDS011;43171;50.994;18.204;2022-10-26T15:47:54;9.10;;;3.80;;
57335;SDS011;43171;50.994;18.204;2022-10-26T15:57:40;32.80;;;12.40;;
57335;SDS011;43171;50.994;18.204;2022-10-26T16:07:25;37.70;;;14.30;;
57335;SDS011;43171;50.994;18.204;2022-10-26T16:17:08;15.00;;;9.80;;
57335;SDS011;43171;50.994;18.204;2022-10-26T16:26:51;9.40;;;5.20;;
57335;SDS011;43171;50.994;18.204;2022-10-26T16:36:36;8.60;;;4.40;;
57335;SDS011;43171;50.994;18.204;2022-10-26T16:46:21;5.00;;;4.00;;
57335;SDS011;43171;50.994;18.204;2022-10-26T17:03:25;53.10;;;27.10;;
57335;SDS011;43171;50.994;18.204;2022-10-26T17:13:18;16.90;;;12.60;;
57335;SDS011;43171;50.994;18.204;2022-10-26T17:23:00;11.60;;;6.50;;
57335;SDS011;43171;50.994;18.204;2022-10-26T17:32:42;11.70;;;6.60;;
57335;SDS011;43171;50.994;18.204;2022-10-26T17:42:27;14.60;;;9.70;;
57335;SDS011;43171;50.994;18.204;2022-10-26T17:52:09;21.40;;;6.20;;
57335;SDS011;43171;50.994;18.204;2022-10-26T18:01:52;18.50;;;12.40;;
57335;SDS011;43171;50.994;18.204;2022-10-26T18:11:34;26.60;;;15.90;;
57335;SDS011;43171;50.994;18.204;2022-10-26T18:21:24;28.30;;;18.00;;
57335;SDS011;43171;50.994;18.204;2022-10-26T18:31:09;32.60;;;14.40;;
57335;SDS011;43171;50.994;18.204;2022-10-26T18:40:57;19.00;;;13.20;;
57335;SDS011;43171;50.994;18.204;2022-10-26T18:45:48;31.00;;;20.70;;
57335;SDS011;43171;50.994;18.204;2022-10-26T18:55:37;32.90;;;18.10;;
57335;SDS011;43171;50.994;18.204;2022-10-26T19:05:26;30.40;;;18.10;;
57335;SDS011;43171;50.994;18.204;2022-10-26T19:12:43;37.70;;;23.00;;
57335;SDS011;43171;50.994;18.204;2022-10-26T19:22:25;21.50;;;14.50;;
57335;SDS011;43171;50.994;18.204;2022-10-26T19:32:07;41.30;;;20.20;;
57335;SDS011;43171;50.994;18.204;2022-10-26T19:49:05;36.90;;;21.70;;
57335;SDS011;43171;50.994;18.204;2022-10-26T19:58:50;32.80;;;19.60;;
57335;SDS011;43171;50.994;18.204;2022-10-26T20:08:37;31.40;;;12.70;;
57335;SDS011;43171;50.994;18.204;2022-10-26T20:18:25;30.10;;;17.50;;
57335;SDS011;43171;50.994;18.204;2022-10-26T20:23:16;30.60;;;20.00;;
57335;SDS011;43171;50.994;18.204;2022-10-26T20:33:02;27.90;;;16.50;;
57335;SDS011;43171;50.994;18.204;2022-10-26T20:42:46;26.60;;;18.00;;
57335;SDS011;43171;50.994;18.204;2022-10-26T20:45:14;32.80;;;20.50;;
57335;SDS011;43171;50.994;18.204;2022-10-26T21:05:27;22.80;;;15.90;;
57335;SDS011;43171;50.994;18.204;2022-10-26T21:15:10;10.30;;;7.30;;
57335;SDS011;43171;50.994;18.204;2022-10-26T21:24:51;17.90;;;10.90;;
57335;SDS011;43171;50.994;18.204;2022-10-26T21:34:33;17.30;;;10.90;;
57335;SDS011;43171;50.994;18.204;2022-10-26T21:44:15;18.00;;;9.20;;
57335;SDS011;43171;50.994;18.204;2022-10-26T21:53:57;25.10;;;11.50;;
57335;SDS011;43171;50.994;18.204;2022-10-26T22:03:46;9.40;;;5.80;;
57335;SDS011;43171;50.994;18.204;2022-10-26T22:13:48;13.00;;;10.20;;
57335;SDS011;43171;50.994;18.204;2022-10-26T22:23:34;19.00;;;11.70;;
57335;SDS011;43171;50.994;18.204;2022-10-26T22:33:32;10.90;;;9.70;;
57335;SDS011;43171;50.994;18.204;2022-10-26T22:43:24;14.90;;;12.40;;
57335;SDS011;43171;50.994;18.204;2022-10-26T22:53:15;16.50;;;12.70;;
57335;SDS011;43171;50.994;18.204;2022-10-26T23:02:57;25.10;;;16.40;;
57335;SDS011;43171;50.994;18.204;2022-10-26T23:12:39;26.10;;;14.40;;
57335;SDS011;43171;50.994;18.204;2022-10-26T23:22:21;20.60;;;12.20;;
57335;SDS011;43171;50.994;18.204;2022-10-26T23:32:03;20.00;;;9.90;;
57335;SDS011;43171;50.994;18.204;2022-10-26T23:41:44;17.60;;;12.00;;
57335;SDS011;43171;50.994;18.204;2022-10-26T23:51:26;14.70;;;8.30;;
